Time;durP1;ratioP1;P1;durP2;ratioP2;P2;SDS_P1;SDS_P2;PMS_P1;PMS_P2;Temp;Humidity;BMP_temperature;BMP_pressure;BME280_temperature;BME280_humidity;BME280_pressure;Samples;Min_cycle;Max_cycle;Signal;HPM_P1;HPM_P2
2024/03/18 00:01:06;;;;;;;0.73;0.73;;;13.50;99.90;;;;;;10507893;28;20168;-57
2024/03/18 00:06:08;;;;;;;0.47;0.47;;;13.60;99.90;;;;;;10507027;28;20040;-55
2024/03/18 00:11:11;;;;;;;0.25;0.25;;;13.60;99.90;;;;;;10510670;28;20055;-56
2024/03/18 00:16:15;;;;;;;4.03;1.30;;;13.60;99.90;;;;;;10500030;28;20138;-56
2024/03/18 00:21:17;;;;;;;0.22;0.22;;;13.00;99.90;;;;;;10511494;28;20055;-56
2024/03/18 00:26:19;;;;;;;1.25;0.85;;;13.60;99.90;;;;;;10505274;28;20385;-55
2024/03/18 00:31:23;;;;;;;0.55;0.55;;;13.90;99.90;;;;;;10517373;28;20090;-57
2024/03/18 00:36:26;;;;;;;0.30;0.30;;;13.40;99.90;;;;;;10507165;28;20044;-53
2024/03/18 00:41:46;;;;;;;0.10;0.10;;;14.60;99.90;;;;;;10520192;28;20056;-55
2024/03/18 00:46:49;;;;;;;0.10;0.10;;;14.20;99.90;;;;;;10507709;28;20048;-54
2024/03/18 00:51:51;;;;;;;2.17;1.75;;;14.90;99.90;;;;;;10511352;28;20052;-55
2024/03/18 00:56:55;;;;;;;0.10;0.10;;;14.50;99.90;;;;;;10516051;28;20722;-55
2024/03/18 01:01:58;;;;;;;2.65;0.95;;;14.40;99.90;;;;;;10522756;28;20133;-55
2024/03/18 01:07:01;;;;;;;0.22;0.22;;;13.70;99.90;;;;;;10529050;28;20056;-56
2024/03/18 01:12:04;;;;;;;0.10;0.10;;;14.20;99.90;;;;;;10527464;28;20059;-54
2024/03/18 01:17:08;;;;;;;0.00;0.00;;;14.20;99.90;;;;;;10516200;28;20248;-56
2024/03/18 01:22:10;;;;;;;0.10;0.10;;;14.00;99.90;;;;;;10517959;28;20055;-55
2024/03/18 01:27:12;;;;;;;0.00;0.00;;;14.50;99.90;;;;;;10517748;28;20212;-51
2024/03/18 01:32:16;;;;;;;0.10;0.10;;;13.70;99.90;;;;;;10503690;28;20884;-56
2024/03/18 01:37:18;;;;;;;0.10;0.10;;;13.60;99.90;;;;;;10522681;28;20832;-55
2024/03/18 01:42:21;;;;;;;1.55;0.98;;;14.30;99.90;;;;;;10512573;28;20051;-56
2024/03/18 01:47:24;;;;;;;0.13;0.13;;;14.30;99.90;;;;;;10518724;28;20040;-56
2024/03/18 01:52:27;;;;;;;0.10;0.10;;;14.60;99.90;;;;;;10521989;28;20101;-53
2024/03/18 01:57:30;;;;;;;0.77;0.77;;;15.00;99.90;;;;;;10515593;28;20051;-56
2024/03/18 02:02:34;;;;;;;0.10;0.10;;;14.80;99.90;;;;;;10511938;28;20128;-56
2024/03/18 02:07:37;;;;;;;1.85;0.70;;;14.90;99.90;;;;;;10515396;28;20067;-55
2024/03/18 02:12:39;;;;;;;;;;;14.60;99.90;;;;;;10515190;28;20067;-55
2024/03/18 02:17:42;;;;;;;0.55;0.55;;;14.70;99.90;;;;;;10517156;28;19927;-55
2024/03/18 02:22:47;;;;;;;0.20;0.20;;;15.00;99.90;;;;;;10517885;28;20048;-55
2024/03/18 02:27:49;;;;;;;1.00;0.98;;;15.40;99.90;;;;;;10516980;28;20889;-57
2024/03/18 02:32:52;;;;;;;0.47;0.47;;;15.20;99.90;;;;;;10518005;28;20047;-56
2024/03/18 02:37:55;;;;;;;0.28;0.28;;;14.70;99.90;;;;;;10515508;28;20074;-51
2024/03/18 02:42:57;;;;;;;0.10;0.10;;;14.70;99.90;;;;;;10513198;28;20052;-55
2024/03/18 02:47:59;;;;;;;0.10;0.10;;;14.70;99.90;;;;;;10512861;28;20057;-55
2024/03/18 02:53:03;;;;;;;0.55;0.55;;;14.40;99.90;;;;;;10511690;28;20055;-53
2024/03/18 02:58:05;;;;;;;0.45;0.45;;;14.40;99.90;;;;;;10509528;28;20572;-54
2024/03/18 03:03:07;;;;;;;0.10;0.10;;;14.50;99.90;;;;;;10510375;28;20044;-53
2024/03/18 03:08:11;;;;;;;0.00;0.00;;;15.00;99.90;;;;;;10513360;28;20055;-53
2024/03/18 03:13:14;;;;;;;0.20;0.20;;;14.90;99.90;;;;;;10518599;28;20142;-56
2024/03/18 03:18:17;;;;;;;0.00;0.00;;;15.50;99.90;;;;;;10515215;28;20664;-55
2024/03/18 03:23:21;;;;;;;0.20;0.20;;;15.80;99.90;;;;;;10515231;28;20090;-53
2024/03/18 03:28:23;;;;;;;0.10;0.10;;;15.70;99.90;;;;;;10511446;28;20051;-52
2024/03/18 03:33:27;;;;;;;0.05;0.05;;;15.40;99.90;;;;;;10520526;28;20062;-53
2024/03/18 03:38:30;;;;;;;0.50;0.50;;;15.20;99.90;;;;;;10517654;28;20418;-53
2024/03/18 03:43:33;;;;;;;0.10;0.10;;;15.50;99.90;;;;;;10518121;28;20055;-55
2024/03/18 03:48:35;;;;;;;0.25;0.25;;;15.10;99.90;;;;;;10525831;28;20155;-55
2024/03/18 03:53:39;;;;;;;0.00;0.00;;;15.20;99.90;;;;;;10529795;28;20407;-52
2024/03/18 04:15:31;;;;;;;0.10;0.10;;;14.70;99.90;;;;;;10540995;27;20221;-55
2024/03/18 04:20:34;;;;;;;0.10;0.10;;;14.30;99.90;;;;;;10569586;28;20054;-57
2024/03/18 04:25:37;;;;;;;;;;;14.50;99.90;;;;;;10567121;28;20342;-54
2024/03/18 04:30:41;;;;;;;0.10;0.10;;;14.70;99.90;;;;;;10561358;28;19977;-53
2024/03/18 04:35:43;;;;;;;0.20;0.20;;;13.40;99.90;;;;;;10559860;28;20582;-52
2024/03/18 04:40:45;;;;;;;0.03;0.03;;;13.30;99.90;;;;;;10558549;28;20470;-55
2024/03/18 04:45:49;;;;;;;15.02;3.30;;;13.50;99.90;;;;;;10555945;28;20093;-55
2024/03/18 04:50:50;;;;;;;0.20;0.20;;;13.70;99.90;;;;;;10551821;28;20969;-55
2024/03/18 04:55:56;;;;;;;1.43;1.37;;;14.70;99.90;;;;;;10552465;28;20672;-56
2024/03/18 05:01:01;;;;;;;0.10;0.10;;;14.90;99.90;;;;;;10551432;28;20107;-55
2024/03/18 05:06:03;;;;;;;0.35;0.35;;;15.00;99.90;;;;;;10539818;28;20079;-55
2024/03/18 05:11:05;;;;;;;0.40;0.40;;;14.90;99.90;;;;;;10554728;28;20067;-56
2024/03/18 05:16:09;;;;;;;0.20;0.20;;;14.80;99.90;;;;;;10557275;28;20170;-52
2024/03/18 05:21:11;;;;;;;1.02;1.00;;;14.00;99.90;;;;;;10551807;28;23175;-53
2024/03/18 05:26:13;;;;;;;2.03;1.13;;;14.30;99.90;;;;;;10522053;28;20051;-54
2024/03/18 05:31:16;;;;;;;0.20;0.20;;;13.70;99.90;;;;;;10518866;28;21172;-56
2024/03/18 05:36:18;;;;;;;0.40;0.40;;;13.60;99.90;;;;;;10521691;28;20080;-56
2024/03/18 05:41:20;;;;;;;0.10;0.10;;;13.00;99.90;;;;;;10527986;28;20516;-56
2024/03/18 05:46:24;;;;;;;0.25;0.25;;;12.50;99.90;;;;;;10529207;28;20064;-52
2024/03/18 05:51:26;;;;;;;0.30;0.30;;;13.50;99.90;;;;;;10507697;28;20880;-54
2024/03/18 05:56:28;;;;;;;0.10;0.10;;;14.40;99.90;;;;;;10505379;28;20055;-55
2024/03/18 06:01:31;;;;;;;0.10;0.10;;;14.10;99.90;;;;;;10499249;28;20048;-57
2024/03/18 06:06:34;;;;;;;0.90;0.85;;;14.30;99.90;;;;;;10503767;28;20043;-57
2024/03/18 06:11:38;;;;;;;0.20;0.20;;;13.80;99.90;;;;;;10505635;28;20048;-53
2024/03/18 06:16:42;;;;;;;1.40;1.27;;;13.90;99.90;;;;;;10508926;28;20889;-57
2024/03/18 06:21:45;;;;;;;0.10;0.10;;;15.20;99.90;;;;;;10502133;28;20167;-55
2024/03/18 06:26:47;;;;;;;0.08;0.08;;;14.30;99.90;;;;;;10512899;28;20045;-54
2024/03/18 06:31:50;;;;;;;0.10;0.10;;;14.90;99.90;;;;;;10507876;28;20067;-56
2024/03/18 06:36:53;;;;;;;0.10;0.10;;;16.00;99.90;;;;;;10502698;28;20581;-55
2024/03/18 06:41:55;;;;;;;0.00;0.00;;;15.80;99.90;;;;;;10502860;28;20067;-56
2024/03/18 06:46:58;;;;;;;0.20;0.20;;;15.20;99.90;;;;;;10510547;28;20048;-56
2024/03/18 06:52:00;;;;;;;0.20;0.20;;;16.20;99.90;;;;;;10514242;28;20074;-56
2024/03/18 06:57:02;;;;;;;0.03;0.03;;;15.60;99.90;;;;;;10505122;28;20140;-55
2024/03/18 07:02:06;;;;;;;0.00;0.00;;;14.90;99.90;;;;;;10519457;28;20143;-56
2024/03/18 07:07:08;;;;;;;0.10;0.10;;;15.00;99.90;;;;;;10512970;28;20048;-54
2024/03/18 07:12:10;;;;;;;0.17;0.07;;;15.20;99.90;;;;;;10506079;28;20125;-55
2024/03/18 07:17:13;;;;;;;0.00;0.00;;;15.60;99.90;;;;;;10511268;28;20048;-57
2024/03/18 07:22:15;;;;;;;0.43;0.43;;;16.30;99.90;;;;;;10511044;28;20510;-58
2024/03/18 07:27:17;;;;;;;0.30;0.30;;;17.10;99.90;;;;;;10506666;28;20460;-55
2024/03/18 07:32:21;;;;;;;0.10;0.10;;;16.50;99.90;;;;;;10514532;28;20863;-55
2024/03/18 07:37:23;;;;;;;1.60;1.50;;;16.70;99.90;;;;;;10512155;28;20043;-56
2024/03/18 07:42:25;;;;;;;0.90;0.90;;;16.40;99.90;;;;;;10510583;28;20040;-56
2024/03/18 07:47:28;;;;;;;1.85;1.38;;;15.80;99.90;;;;;;10506621;28;20968;-55
2024/03/18 07:52:31;;;;;;;0.75;0.40;;;15.00;99.90;;;;;;10512667;28;20046;-54
2024/03/18 07:57:33;;;;;;;0.98;0.82;;;13.30;99.90;;;;;;10506289;28;20054;-56
2024/03/18 08:02:37;;;;;;;1.23;1.17;;;13.20;99.90;;;;;;10506432;28;20048;-56
2024/03/18 08:07:39;;;;;;;0.47;0.47;;;13.50;99.90;;;;;;10513680;28;20064;-56
2024/03/18 08:12:41;;;;;;;0.20;0.20;;;13.40;99.90;;;;;;10508883;28;20217;-55
2024/03/18 08:17:45;;;;;;;0.53;0.53;;;13.60;99.90;;;;;;10507300;28;20060;-56
2024/03/18 08:22:47;;;;;;;0.60;0.60;;;14.70;99.90;;;;;;10510769;28;20052;-56
2024/03/18 08:27:49;;;;;;;0.30;0.30;;;14.60;99.90;;;;;;10506359;28;20550;-54
2024/03/18 08:32:52;;;;;;;0.00;0.00;;;13.70;99.90;;;;;;10512308;28;20044;-57
2024/03/18 08:37:54;;;;;;;0.40;0.40;;;14.00;99.90;;;;;;10507554;28;20188;-57
2024/03/18 08:42:56;;;;;;;0.00;0.00;;;14.80;99.90;;;;;;10504428;28;20190;-56
2024/03/18 08:47:59;;;;;;;0.47;0.47;;;13.80;99.90;;;;;;10509814;28;20083;-55
2024/03/18 08:53:01;;;;;;;14.00;2.83;;;14.30;99.90;;;;;;10513449;28;20052;-55
2024/03/18 08:58:04;;;;;;;13.13;1.70;;;13.60;99.90;;;;;;10514447;28;20060;-55
2024/03/18 09:03:08;;;;;;;16.70;2.90;;;13.90;99.90;;;;;;10522154;28;20065;-53
2024/03/18 09:08:10;;;;;;;11.90;2.55;;;13.60;99.90;;;;;;10521152;28;20547;-55
2024/03/18 09:13:14;;;;;;;14.25;3.33;;;13.50;99.90;;;;;;10516657;28;20751;-52
2024/03/18 09:18:17;;;;;;;15.45;2.13;;;14.00;99.90;;;;;;10515936;28;20072;-53
2024/03/18 09:23:19;;;;;;;10.43;1.55;;;14.40;99.90;;;;;;10514736;28;20074;-54
2024/03/18 09:28:21;;;;;;;16.60;2.80;;;14.40;99.90;;;;;;10519942;28;20136;-54
2024/03/18 09:33:24;;;;;;;13.50;2.37;;;13.50;99.90;;;;;;10517596;28;20044;-55
2024/03/18 09:38:27;;;;;;;20.27;3.22;;;14.20;99.90;;;;;;10507889;28;20101;-55
2024/03/18 09:43:29;;;;;;;19.17;3.00;;;14.30;99.90;;;;;;10513316;28;20210;-57
2024/03/18 09:48:34;;;;;;;15.03;2.40;;;14.30;99.90;;;;;;10523371;28;20461;-57
2024/03/18 09:53:38;;;;;;;15.27;1.92;;;14.20;99.90;;;;;;10512873;28;21270;-57
2024/03/18 09:58:40;;;;;;;16.13;2.83;;;14.60;99.90;;;;;;10519391;28;20406;-57
2024/03/18 10:03:44;;;;;;;11.83;2.00;;;14.60;99.90;;;;;;10513165;28;20113;-53
2024/03/18 10:08:46;;;;;;;9.73;2.28;;;13.80;99.90;;;;;;10516801;28;20052;-56
2024/03/18 10:13:49;;;;;;;7.73;1.80;;;13.50;99.90;;;;;;10510130;28;20060;-56
2024/03/18 10:18:52;;;;;;;13.75;2.20;;;13.90;99.90;;;;;;10515394;28;20610;-55
2024/03/18 10:23:56;;;;;;;14.07;2.47;;;13.60;99.90;;;;;;10515611;28;20051;-58
2024/03/18 10:28:58;;;;;;;10.63;2.17;;;13.80;99.90;;;;;;10516386;28;20058;-55
2024/03/18 10:34:05;;;;;;;11.60;1.90;;;13.50;99.90;;;;;;10518477;28;20054;-55
2024/03/18 10:39:09;;;;;;;6.68;1.55;;;13.40;99.90;;;;;;10524943;28;20044;-55
2024/03/18 10:44:17;;;;;;;15.43;1.80;;;14.30;99.90;;;;;;10516543;28;20048;-56
2024/03/18 10:49:21;;;;;;;10.52;2.25;;;14.30;99.90;;;;;;10512861;28;20076;-55
2024/03/18 10:54:24;;;;;;;9.25;2.03;;;14.10;99.90;;;;;;10505340;28;20574;-54
2024/03/18 10:59:27;;;;;;;17.25;1.52;;;14.10;99.90;;;;;;10507986;28;20043;-53
2024/03/18 11:04:30;;;;;;;9.33;1.20;;;14.20;99.90;;;;;;10506562;28;20531;-54
2024/03/18 11:09:38;;;;;;;13.48;1.55;;;13.90;99.90;;;;;;10507673;28;20135;-55
2024/03/18 11:14:41;;;;;;;6.35;1.50;;;13.80;99.90;;;;;;10519983;28;20054;-57
2024/03/18 11:19:46;;;;;;;;;;;14.90;99.90;;;;;;10521821;28;20081;-55
2024/03/18 11:24:52;;;;;;;9.18;1.67;;;14.80;99.90;;;;;;10511749;28;19927;-56
2024/03/18 11:29:57;;;;;;;8.00;1.45;;;15.40;99.90;;;;;;10504836;28;20067;-54
2024/03/18 11:35:03;;;;;;;10.55;1.88;;;15.20;99.90;;;;;;10508297;28;20082;-53
2024/03/18 11:40:07;;;;;;;11.45;2.25;;;14.80;99.90;;;;;;10508302;28;20067;-54
2024/03/18 11:45:16;;;;;;;5.15;1.33;;;14.80;99.90;;;;;;10510701;28;20892;-54
2024/03/18 11:50:20;;;;;;;7.05;1.30;;;15.00;99.90;;;;;;10514079;28;20121;-56
2024/03/18 11:55:22;;;;;;;12.52;2.22;;;15.70;99.90;;;;;;10510821;28;20646;-55
2024/03/18 12:00:24;;;;;;;19.27;2.03;;;15.30;99.90;;;;;;10513584;28;20162;-55
2024/03/18 12:05:28;;;;;;;6.40;1.87;;;15.60;99.90;;;;;;10512055;28;20079;-55
2024/03/18 12:10:30;;;;;;;7.93;1.67;;;16.20;99.90;;;;;;10507994;28;20474;-55
2024/03/18 12:15:33;;;;;;;13.82;2.28;;;16.10;99.90;;;;;;10516041;28;20617;-56
2024/03/18 12:20:37;;;;;;;6.80;1.55;;;15.80;99.90;;;;;;10511909;28;20056;-55
2024/03/18 12:31:01;;;;;;;17.88;2.92;;;16.50;99.90;;;;;;10506971;28;20028;-55
2024/03/18 12:36:09;;;;;;;13.23;2.70;;;16.40;99.90;;;;;;10523260;28;20055;-55
2024/03/18 12:41:15;;;;;;;16.85;2.92;;;17.30;99.90;;;;;;10524634;28;20128;-55
2024/03/18 12:46:20;;;;;;;16.70;3.30;;;17.40;99.90;;;;;;10520964;28;20548;-54
2024/03/18 12:51:24;;;;;;;9.35;2.45;;;17.80;99.90;;;;;;10524685;28;20520;-56
2024/03/18 12:56:26;;;;;;;13.90;2.33;;;17.70;99.90;;;;;;10525381;28;20044;-54
2024/03/18 13:01:28;;;;;;;14.43;2.95;;;17.60;99.90;;;;;;10516411;28;20048;-56
2024/03/18 13:06:31;;;;;;;15.80;3.03;;;18.30;99.90;;;;;;10520957;28;20104;-56
2024/03/18 13:11:34;;;;;;;14.23;2.63;;;17.40;99.90;;;;;;10517750;28;20083;-57
2024/03/18 13:16:36;;;;;;;15.52;2.85;;;18.00;99.90;;;;;;10515069;28;20145;-53
2024/03/18 13:21:39;;;;;;;19.00;2.75;;;17.90;99.90;;;;;;10519693;28;20059;-55
2024/03/18 13:26:42;;;;;;;10.55;2.72;;;18.00;99.90;;;;;;10518346;28;20554;-53
2024/03/18 13:31:44;;;;;;;12.55;2.40;;;17.80;99.90;;;;;;10527551;28;20055;-55
2024/03/18 13:36:48;;;;;;;11.50;2.80;;;18.80;99.90;;;;;;10516078;28;20039;-56
2024/03/18 13:41:50;;;;;;;11.50;2.40;;;18.80;99.90;;;;;;10519253;28;20075;-55
2024/03/18 13:46:52;;;;;;;12.20;2.42;;;18.50;99.90;;;;;;10517804;28;20056;-55
2024/03/18 13:51:57;;;;;;;16.23;2.95;;;18.00;99.90;;;;;;10516954;28;21313;-55
2024/03/18 13:57:03;;;;;;;11.73;2.17;;;17.50;99.90;;;;;;10507334;28;20474;-55
2024/03/18 14:02:06;;;;;;;13.82;2.72;;;18.00;99.90;;;;;;10510668;28;20574;-57
2024/03/18 14:07:10;;;;;;;13.82;4.43;;;17.80;99.90;;;;;;10515926;28;20066;-55
2024/03/18 14:12:16;;;;;;;13.35;4.35;;;18.10;99.90;;;;;;10512248;28;20139;-57
2024/03/18 14:17:18;;;;;;;11.70;3.78;;;17.80;99.90;;;;;;10511828;28;20044;-56
2024/03/18 14:22:21;;;;;;;13.15;4.75;;;16.90;99.90;;;;;;10515730;28;20408;-55
2024/03/18 14:27:23;;;;;;;15.18;4.50;;;16.80;99.90;;;;;;10515774;28;20158;-55
2024/03/18 14:32:25;;;;;;;10.10;3.55;;;17.60;99.90;;;;;;10516927;28;20048;-55
2024/03/18 14:37:29;;;;;;;11.27;3.17;;;18.30;99.90;;;;;;10517511;28;20456;-56
2024/03/18 14:42:31;;;;;;;5.70;2.83;;;19.00;99.90;;;;;;10511762;28;20055;-56
2024/03/18 14:47:33;;;;;;;12.57;2.90;;;19.50;99.90;;;;;;10506571;28;20043;-57
2024/03/18 14:52:36;;;;;;;7.63;3.28;;;20.00;99.90;;;;;;10518240;28;20602;-55
2024/03/18 14:57:39;;;;;;;7.47;2.22;;;19.60;99.90;;;;;;10508483;28;20048;-55
2024/03/18 15:02:41;;;;;;;8.32;2.33;;;20.50;99.90;;;;;;10515484;28;20063;-56
2024/03/18 15:07:45;;;;;;;12.63;3.10;;;20.60;99.90;;;;;;10507490;28;20096;-56
2024/03/18 15:12:48;;;;;;;13.90;3.63;;;20.50;99.90;;;;;;10516008;28;20078;-55
2024/03/18 15:17:52;;;;;;;14.70;3.40;;;21.40;99.90;;;;;;10511118;28;20060;-57
2024/03/18 15:22:59;;;;;;;12.50;3.92;;;20.60;99.90;;;;;;10504181;28;20070;-57
2024/03/18 15:28:00;;;;;;;14.13;3.72;;;21.90;99.90;;;;;;10507655;28;20462;-57
2024/03/18 15:33:04;;;;;;;14.57;3.58;;;22.70;99.90;;;;;;10514434;28;20188;-57
2024/03/18 15:38:08;;;;;;;11.23;3.17;;;21.10;99.90;;;;;;10502615;28;20228;-54
2024/03/18 15:43:10;;;;;;;13.23;2.80;;;21.50;99.90;;;;;;10517536;28;20055;-53
2024/03/18 15:48:12;;;;;;;12.45;3.70;;;21.30;99.90;;;;;;10513453;28;20052;-57
2024/03/18 15:53:16;;;;;;;12.65;3.08;;;21.90;99.90;;;;;;10501857;28;20067;-56
2024/03/18 15:58:18;;;;;;;11.07;3.10;;;22.20;99.90;;;;;;10508171;28;20044;-53
2024/03/18 16:03:20;;;;;;;13.20;3.78;;;21.80;99.90;;;;;;10502681;28;20180;-53
2024/03/18 16:08:23;;;;;;;11.93;3.00;;;21.90;99.90;;;;;;10516326;28;20062;-51
2024/03/18 16:13:25;;;;;;;14.43;3.55;;;22.40;99.90;;;;;;10517763;28;20051;-52
2024/03/18 16:18:29;;;;;;;14.85;3.10;;;22.60;99.90;;;;;;10515163;28;20244;-52
2024/03/18 16:23:33;;;;;;;15.90;4.60;;;23.00;99.90;;;;;;10510395;28;20055;-55
2024/03/18 16:28:35;;;;;;;11.10;2.75;;;23.00;99.90;;;;;;10507104;28;20123;-56
2024/03/18 16:33:38;;;;;;;13.55;4.28;;;23.10;99.90;;;;;;10516985;28;20109;-57
2024/03/18 16:38:41;;;;;;;16.77;3.20;;;23.10;99.90;;;;;;10516014;28;20368;-57
2024/03/18 16:43:43;;;;;;;10.27;2.92;;;23.10;99.90;;;;;;10521563;28;20060;-62
2024/03/18 16:48:45;;;;;;;;;;;23.40;99.90;;;;;;10516369;28;20208;-56
2024/03/18 16:53:48;;;;;;;10.45;2.70;;;23.50;99.90;;;;;;10516296;28;19923;-54
2024/03/18 16:58:50;;;;;;;15.02;2.97;;;23.70;99.90;;;;;;10507815;28;20506;-55
2024/03/18 17:03:57;;;;;;;;;;;23.70;99.90;;;;;;10491695;28;20075;-58
2024/03/18 17:09:01;;;;;;;10.43;3.10;;;23.80;99.90;;;;;;10493257;28;19931;-56
2024/03/18 17:14:03;;;;;;;19.10;4.38;;;23.80;99.90;;;;;;10488741;28;20124;-56
2024/03/18 17:19:05;;;;;;;11.48;3.83;;;23.30;99.90;;;;;;10499537;28;20155;-57
2024/03/18 17:24:09;;;;;;;14.43;3.38;;;23.40;99.90;;;;;;10497896;28;20856;-56
2024/03/18 17:29:12;;;;;;;18.00;4.18;;;23.60;99.90;;;;;;10507893;28;20526;-56
2024/03/18 17:34:15;;;;;;;14.02;3.40;;;23.70;99.90;;;;;;10492790;28;20063;-57
2024/03/18 17:39:18;;;;;;;17.13;4.22;;;23.70;99.90;;;;;;10510199;28;20097;-55
2024/03/18 17:44:20;;;;;;;12.13;3.88;;;23.50;99.90;;;;;;10509738;28;20523;-56
2024/03/18 17:49:23;;;;;;;19.27;3.63;;;23.50;99.90;;;;;;10512214;28;20506;-56
2024/03/18 17:54:27;;;;;;;9.73;3.33;;;23.30;99.90;;;;;;10499564;28;20454;-56
2024/03/18 17:59:29;;;;;;;10.48;3.05;;;23.20;99.90;;;;;;10506110;28;20136;-57
2024/03/18 18:04:31;;;;;;;11.15;3.58;;;23.20;99.90;;;;;;10507883;28;21131;-56
2024/03/18 18:09:35;;;;;;;;;;;23.00;99.90;;;;;;10515586;28;20051;-57
2024/03/18 18:14:38;;;;;;;13.70;4.68;;;22.90;99.90;;;;;;10506142;28;19934;-56
2024/03/18 18:19:40;;;;;;;10.25;3.50;;;22.30;99.90;;;;;;10502559;28;20755;-56
2024/03/18 18:24:43;;;;;;;;;;;22.30;99.90;;;;;;10503823;28;20060;-59
2024/03/18 18:29:46;;;;;;;11.75;3.17;;;22.30;99.90;;;;;;10507013;28;19927;-56
2024/03/18 18:34:47;;;;;;;;;;;22.10;99.90;;;;;;10511479;28;20119;-57
2024/03/18 18:39:51;;;;;;;10.53;3.23;;;21.90;99.90;;;;;;10511081;28;19920;-57
2024/03/18 18:44:53;;;;;;;23.45;3.85;;;21.90;99.90;;;;;;10502116;28;20907;-56
2024/03/18 18:49:55;;;;;;;14.20;4.10;;;21.70;99.90;;;;;;10502980;28;20188;-54
2024/03/18 18:55:00;;;;;;;11.77;3.95;;;21.00;99.90;;;;;;10492698;28;20539;-56
2024/03/18 19:00:06;;;;;;;14.88;3.60;;;19.60;99.90;;;;;;10506827;28;20491;-51
2024/03/18 19:05:08;;;;;;;14.07;3.53;;;19.00;99.90;;;;;;10504737;28;20047;-51
2024/03/18 19:10:12;;;;;;;;;;;18.70;99.90;;;;;;10507923;28;20092;-54
2024/03/18 19:15:15;;;;;;;11.00;3.95;;;18.90;99.90;;;;;;10502863;28;19924;-55
2024/03/18 19:20:18;;;;;;;7.70;2.75;;;18.80;99.90;;;;;;10503488;28;20064;-56
2024/03/18 19:25:22;;;;;;;12.27;3.25;;;19.70;99.90;;;;;;10506942;28;20213;-55
2024/03/18 19:30:24;;;;;;;9.10;3.22;;;20.20;99.90;;;;;;10512419;28;20052;-58
2024/03/18 19:35:26;;;;;;;;;;;20.40;99.90;;;;;;10510095;28;20093;-58
2024/03/18 19:40:30;;;;;;;10.35;3.28;;;20.30;99.90;;;;;;10501581;28;19924;-58
2024/03/18 19:45:33;;;;;;;11.73;4.13;;;20.30;99.90;;;;;;10501239;28;20827;-56
2024/03/18 19:50:35;;;;;;;12.25;3.58;;;20.40;99.90;;;;;;10512441;28;20051;-55
2024/03/18 19:55:41;;;;;;;9.90;3.78;;;20.40;99.90;;;;;;10498237;28;20040;-54
2024/03/18 20:00:47;;;;;;;40.13;6.88;;;20.30;99.90;;;;;;10506227;28;20079;-58
2024/03/18 20:05:49;;;;;;;9.50;4.07;;;20.20;99.90;;;;;;10500588;28;20056;-56
2024/03/18 20:10:52;;;;;;;;;;;20.20;99.90;;;;;;10509517;28;20066;-56
2024/03/18 20:15:54;;;;;;;13.13;3.90;;;20.10;99.90;;;;;;10500158;28;19963;-54
2024/03/18 20:20:56;;;;;;;16.13;4.20;;;19.90;99.90;;;;;;10510829;28;20076;-55
2024/03/18 20:26:02;;;;;;;8.60;2.85;;;19.80;99.90;;;;;;10508241;28;20044;-56
2024/03/18 20:31:09;;;;;;;16.55;3.33;;;19.80;99.90;;;;;;10507348;28;20063;-56
2024/03/18 20:36:11;;;;;;;20.55;4.90;;;19.70;99.90;;;;;;10504411;28;20108;-55
2024/03/18 20:41:15;;;;;;;15.27;3.53;;;19.70;99.90;;;;;;10509310;28;20146;-58
2024/03/18 20:46:17;;;;;;;14.82;4.05;;;19.70;99.90;;;;;;10502145;28;20064;-56
2024/03/18 20:51:19;;;;;;;8.70;2.78;;;19.60;99.90;;;;;;10501905;28;20056;-57
2024/03/18 20:56:22;;;;;;;8.70;3.15;;;19.50;99.90;;;;;;10500269;28;20095;-55
2024/03/18 21:01:24;;;;;;;11.48;3.65;;;19.40;99.90;;;;;;10507333;28;20067;-58
2024/03/18 21:06:27;;;;;;;13.25;3.25;;;19.30;99.90;;;;;;10510958;28;20915;-58
2024/03/18 21:11:30;;;;;;;7.97;2.80;;;19.20;99.90;;;;;;10511906;28;20055;-56
2024/03/18 21:16:32;;;;;;;13.07;3.70;;;19.20;99.90;;;;;;10516859;28;20052;-56
2024/03/18 21:21:36;;;;;;;10.07;3.05;;;18.90;99.90;;;;;;10505278;28;20040;-55
2024/03/18 21:26:39;;;;;;;9.65;3.10;;;18.90;99.90;;;;;;10516174;28;20206;-54
2024/03/18 21:31:41;;;;;;;12.43;3.45;;;18.80;99.90;;;;;;10517791;28;20044;-54
2024/03/18 21:36:44;;;;;;;16.33;3.60;;;19.00;99.90;;;;;;10518905;28;20075;-55
2024/03/18 21:41:47;;;;;;;13.98;2.70;;;18.60;99.90;;;;;;10510027;28;20056;-52
2024/03/18 21:46:50;;;;;;;13.65;3.78;;;18.40;99.90;;;;;;10514669;28;20060;-57
2024/03/18 21:51:52;;;;;;;16.08;3.50;;;17.50;99.90;;;;;;10511501;28;20043;-55
2024/03/18 21:56:56;;;;;;;14.57;2.33;;;18.00;99.90;;;;;;10503428;28;20161;-55
2024/03/18 22:01:58;;;;;;;11.45;2.38;;;18.30;99.90;;;;;;10516796;28;20068;-54
2024/03/18 22:07:01;;;;;;;9.85;2.42;;;18.30;99.90;;;;;;10514834;28;20104;-54
2024/03/18 22:12:05;;;;;;;;;;;18.20;99.90;;;;;;10512410;28;20055;-56
2024/03/18 22:17:07;;;;;;;13.65;4.32;;;18.20;99.90;;;;;;10497990;28;19927;-56
2024/03/18 22:22:10;;;;;;;14.40;2.63;;;18.60;99.90;;;;;;10524228;28;20833;-56
2024/03/18 22:27:14;;;;;;;12.30;2.58;;;18.60;99.90;;;;;;10528801;28;20063;-56
2024/03/18 22:32:16;;;;;;;18.45;2.38;;;18.10;99.90;;;;;;10517589;28;21226;-53
2024/03/18 22:37:18;;;;;;;11.13;2.80;;;16.50;99.90;;;;;;10520802;28;20040;-55
2024/03/18 22:42:21;;;;;;;11.85;2.38;;;16.80;99.90;;;;;;10523407;28;20166;-54
2024/03/18 22:47:23;;;;;;;13.35;2.80;;;17.10;99.90;;;;;;10522524;28;20057;-57
2024/03/18 22:52:25;;;;;;;10.18;2.28;;;17.70;99.90;;;;;;10519254;28;20052;-53
2024/03/18 22:57:30;;;;;;;13.43;2.88;;;18.00;99.90;;;;;;10493061;28;20052;-53
2024/03/18 23:02:32;;;;;;;7.63;3.28;;;18.20;99.90;;;;;;10508732;28;20166;-56
2024/03/18 23:07:34;;;;;;;8.75;3.10;;;18.50;99.90;;;;;;10524678;28;20047;-55
2024/03/18 23:12:37;;;;;;;5.88;2.78;;;18.60;99.90;;;;;;10527167;28;20059;-55
2024/03/18 23:17:40;;;;;;;14.77;4.18;;;18.70;99.90;;;;;;10521732;28;20518;-56
2024/03/18 23:22:42;;;;;;;15.38;5.55;;;18.40;99.90;;;;;;10521181;28;20066;-52
2024/03/18 23:27:45;;;;;;;16.38;4.35;;;18.10;99.90;;;;;;10519893;28;20085;-53
2024/03/18 23:32:47;;;;;;;10.13;3.97;;;18.00;99.90;;;;;;10522030;28;20078;-54
2024/03/18 23:37:50;;;;;;;14.83;4.57;;;17.60;99.90;;;;;;10512327;28;20205;-55
2024/03/18 23:42:53;;;;;;;9.38;3.85;;;16.60;99.90;;;;;;10514380;28;21848;-54
2024/03/18 23:47:57;;;;;;;15.02;3.78;;;16.70;99.90;;;;;;10511268;28;20051;-55
2024/03/18 23:53:00;;;;;;;10.23;2.95;;;17.40;99.90;;;;;;10507321;28;20053;-56
2024/03/18 23:58:05;;;;;;;9.35;3.58;;;17.00;99.90;;;;;;10512023;28;20055;-55
